createdAt,value
2023-03-21T00:01:27.055Z,21.02
2023-03-21T00:04:50.914Z,19.80
2023-03-21T00:08:04.601Z,20.27
2023-03-21T00:11:17.320Z,20.95
2023-03-21T00:14:31.018Z,19.45
2023-03-21T00:17:44.903Z,20.37
2023-03-21T00:24:35.355Z,20.40
2023-03-21T00:28:05.153Z,21.33
2023-03-21T00:31:21.321Z,20.23
2023-03-21T00:34:43.627Z,20.67
2023-03-21T00:38:02.497Z,19.95
2023-03-21T00:41:25.847Z,21.25
2023-03-21T00:44:44.871Z,21.80
2023-03-21T00:47:57.547Z,21.25
2023-03-21T00:51:15.620Z,20.27
2023-03-21T00:54:27.959Z,20.67
2023-03-21T00:57:42.268Z,18.80
2023-03-21T01:00:54.857Z,19.35
2023-03-21T01:04:13.262Z,18.65
2023-03-21T01:07:25.673Z,16.90
2023-03-21T01:10:39.965Z,17.15
2023-03-21T01:13:59.771Z,17.12
2023-03-21T01:17:17.587Z,18.05
2023-03-21T01:20:30.245Z,18.85
2023-03-21T01:23:42.961Z,17.92
2023-03-21T01:26:55.329Z,18.70
2023-03-21T01:30:19.129Z,17.58
2023-03-21T01:33:33.142Z,18.37
2023-03-21T01:36:45.789Z,17.65
2023-03-21T01:39:58.548Z,19.67
2023-03-21T01:43:32.201Z,18.40
2023-03-21T01:47:11.488Z,18.25
2023-03-21T01:50:26.314Z,17.52
2023-03-21T01:53:39.841Z,17.10
2023-03-21T01:56:54.194Z,14.90
2023-03-21T02:00:12.561Z,15.63
2023-03-21T02:03:50.086Z,12.57
2023-03-21T02:07:18.086Z,14.23
2023-03-21T02:10:31.640Z,14.57
2023-03-21T02:13:44.788Z,14.07
2023-03-21T02:17:27.086Z,13.65
2023-03-21T02:21:01.923Z,13.05
2023-03-21T02:24:36.994Z,14.25
2023-03-21T02:27:58.602Z,15.38
2023-03-21T02:31:39.093Z,13.88
2023-03-21T02:35:10.598Z,14.10
2023-03-21T02:38:54.771Z,11.77
2023-03-21T02:42:27.626Z,11.60
2023-03-21T02:45:49.862Z,11.98
2023-03-21T02:49:15.487Z,11.88
2023-03-21T02:56:13.036Z,10.80
2023-03-21T02:59:27.175Z,10.88
2023-03-21T03:02:41.662Z,11.48
2023-03-21T03:05:57.036Z,10.30
2023-03-21T03:09:19.725Z,10.02
2023-03-21T03:12:41.951Z,10.32
2023-03-21T03:16:19.886Z,9.50
2023-03-21T03:23:15.531Z,9.40
2023-03-21T03:26:44.838Z,9.73
2023-03-21T03:29:59.366Z,9.85
2023-03-21T03:33:12.450Z,9.82
2023-03-21T03:36:32.520Z,9.75
2023-03-21T03:39:54.108Z,9.82
2023-03-21T03:43:10.388Z,10.50
2023-03-21T03:46:38.913Z,12.50
2023-03-21T03:50:01.034Z,10.07
2023-03-21T03:53:18.844Z,10.13
2023-03-21T03:56:31.826Z,8.80
2023-03-21T03:59:45.289Z,11.65
2023-03-21T04:02:59.848Z,13.82
2023-03-21T04:06:13.663Z,11.25
2023-03-21T04:09:41.200Z,9.23
2023-03-21T04:12:56.337Z,8.50
2023-03-21T04:16:10.068Z,9.35
2023-03-21T04:19:22.899Z,8.98
2023-03-21T04:22:35.821Z,9.15
2023-03-21T04:25:56.378Z,9.40
2023-03-21T04:29:10.800Z,9.43
2023-03-21T04:32:26.494Z,9.38
2023-03-21T04:35:39.778Z,8.80
2023-03-21T04:38:52.756Z,8.48
2023-03-21T04:42:05.322Z,9.10
2023-03-21T04:45:17.995Z,8.48
2023-03-21T04:48:30.566Z,9.20
2023-03-21T04:51:45.450Z,9.18
2023-03-21T04:54:57.999Z,9.10
2023-03-21T04:58:10.621Z,8.65
2023-03-21T05:01:23.048Z,8.73
2023-03-21T05:04:35.689Z,8.57
2023-03-21T05:07:48.037Z,8.30
2023-03-21T05:11:00.885Z,7.93
2023-03-21T05:14:15.616Z,7.95
2023-03-21T05:17:28.610Z,9.20
2023-03-21T05:20:44.776Z,8.45
2023-03-21T05:23:58.472Z,8.70
2023-03-21T05:27:14.061Z,19.42
2023-03-21T05:30:26.920Z,10.20
2023-03-21T05:33:45.446Z,10.75
2023-03-21T05:37:00.980Z,9.55
2023-03-21T05:40:14.807Z,9.80
2023-03-21T05:43:27.957Z,8.68
2023-03-21T05:46:40.403Z,8.45
2023-03-21T05:49:53.492Z,8.40
2023-03-21T05:53:07.132Z,8.27
2023-03-21T05:56:20.408Z,8.50
2023-03-21T05:59:33.177Z,7.47
2023-03-21T06:02:46.892Z,7.87
2023-03-21T06:06:01.236Z,8.30
2023-03-21T06:09:14.248Z,8.55
2023-03-21T06:12:27.822Z,7.95
2023-03-21T06:15:40.598Z,8.55
2023-03-21T06:18:55.338Z,7.22
2023-03-21T06:22:08.423Z,8.10
2023-03-21T06:25:21.937Z,7.62
2023-03-21T06:28:34.500Z,7.68
2023-03-21T06:31:47.786Z,7.10
2023-03-21T06:35:00.883Z,6.55
2023-03-21T06:38:14.572Z,6.93
2023-03-21T06:41:27.505Z,6.87
2023-03-21T06:44:41.077Z,6.72
2023-03-21T06:47:53.642Z,6.30
2023-03-21T06:51:09.126Z,7.20
2023-03-21T06:54:23.084Z,6.40
2023-03-21T06:57:36.172Z,6.85
2023-03-21T07:00:49.198Z,7.15
2023-03-21T07:04:02.155Z,6.90
2023-03-21T07:07:15.797Z,6.70
2023-03-21T07:10:28.700Z,6.50
2023-03-21T07:13:41.522Z,6.82
2023-03-21T07:16:54.287Z,6.32
2023-03-21T07:20:08.360Z,6.43
2023-03-21T07:23:22.223Z,6.22
2023-03-21T07:26:34.641Z,6.50
2023-03-21T07:29:50.407Z,6.40
2023-03-21T07:33:03.031Z,6.18
2023-03-21T07:36:16.006Z,5.85
2023-03-21T07:39:29.555Z,5.30
2023-03-21T07:42:42.483Z,5.45
2023-03-21T07:45:58.459Z,5.12
2023-03-21T07:49:12.142Z,5.05
2023-03-21T07:52:24.748Z,4.90
2023-03-21T07:55:37.660Z,4.57
2023-03-21T07:58:50.206Z,4.45
2023-03-21T08:02:03.160Z,4.40
2023-03-21T08:05:16.249Z,4.87
2023-03-21T08:08:28.839Z,4.57
2023-03-21T08:11:41.457Z,4.75
2023-03-21T08:14:53.929Z,4.43
2023-03-21T08:18:06.666Z,3.80
2023-03-21T08:21:19.231Z,4.22
2023-03-21T08:24:31.972Z,4.07
2023-03-21T08:27:44.812Z,3.87
2023-03-21T08:30:57.589Z,4.20
2023-03-21T08:34:10.035Z,4.15
2023-03-21T08:37:23.070Z,4.50
2023-03-21T08:40:35.924Z,4.20
2023-03-21T08:43:48.973Z,4.05
2023-03-21T08:47:01.543Z,4.37
2023-03-21T08:50:17.496Z,4.57
2023-03-21T08:53:29.974Z,3.85
2023-03-21T08:56:42.683Z,4.12
2023-03-21T08:59:55.296Z,5.20
2023-03-21T09:03:09.439Z,4.00
2023-03-21T09:06:24.798Z,3.90
2023-03-21T09:09:37.501Z,4.00
2023-03-21T09:12:51.012Z,4.00
2023-03-21T09:16:05.265Z,3.60
2023-03-21T09:19:18.042Z,2.70
2023-03-21T09:22:31.036Z,2.20
2023-03-21T09:25:46.085Z,2.95
2023-03-21T09:29:01.093Z,3.12
2023-03-21T09:32:13.517Z,2.87
2023-03-21T09:35:27.135Z,3.20
2023-03-21T09:38:45.778Z,3.40
2023-03-21T09:42:04.778Z,3.30
2023-03-21T09:45:17.335Z,3.45
2023-03-21T09:48:54.359Z,3.87
2023-03-21T09:52:18.859Z,2.92
2023-03-21T09:55:35.093Z,2.95
2023-03-21T09:58:53.292Z,3.17
2023-03-21T10:02:33.816Z,3.12
2023-03-21T10:05:46.907Z,3.83
2023-03-21T10:09:07.476Z,3.17
2023-03-21T10:12:24.754Z,1.70
2023-03-21T10:15:37.430Z,1.70
2023-03-21T10:18:50.436Z,1.33
2023-03-21T10:22:03.982Z,1.50
2023-03-21T10:25:37.361Z,1.80
2023-03-21T10:28:53.069Z,1.70
2023-03-21T10:32:09.201Z,1.97
2023-03-21T10:35:21.729Z,2.00
2023-03-21T10:38:34.465Z,2.55
2023-03-21T10:41:46.842Z,2.90
2023-03-21T10:44:59.520Z,2.47
2023-03-21T10:48:14.771Z,2.30
2023-03-21T10:51:35.673Z,2.42
2023-03-21T10:54:48.533Z,3.30
2023-03-21T10:58:10.925Z,2.40
2023-03-21T11:01:36.637Z,2.60
2023-03-21T11:04:55.347Z,3.10
2023-03-21T11:08:17.105Z,3.40
2023-03-21T11:11:38.965Z,3.70
2023-03-21T11:14:51.358Z,3.03
2023-03-21T11:18:15.494Z,3.40
2023-03-21T11:21:29.723Z,2.60
2023-03-21T11:24:43.445Z,2.53
2023-03-21T11:27:55.946Z,2.50
2023-03-21T11:31:15.669Z,2.05
2023-03-21T11:34:33.553Z,1.60
2023-03-21T11:37:48.987Z,2.00
2023-03-21T11:41:01.665Z,1.98
2023-03-21T11:44:34.480Z,1.02
2023-03-21T11:47:47.862Z,1.12
2023-03-21T11:51:11.442Z,1.00
2023-03-21T11:54:36.052Z,0.80
2023-03-21T11:58:13.841Z,1.10
2023-03-21T12:02:01.299Z,1.27
2023-03-21T12:05:23.118Z,1.25
2023-03-21T12:08:42.529Z,1.60
2023-03-21T12:12:37.924Z,1.50
2023-03-21T12:16:05.729Z,1.50
2023-03-21T12:19:38.384Z,1.73
2023-03-21T12:23:23.174Z,1.75
2023-03-21T12:26:46.912Z,1.80
2023-03-21T12:30:17.510Z,1.75
2023-03-21T12:33:36.942Z,1.77
2023-03-21T12:37:36.885Z,1.40
2023-03-21T12:41:14.443Z,1.80
2023-03-21T12:44:29.116Z,1.95
2023-03-21T12:47:43.018Z,2.20
2023-03-21T12:50:56.295Z,1.85
2023-03-21T12:54:26.817Z,1.87
2023-03-21T12:57:56.491Z,2.10
2023-03-21T13:01:10.681Z,1.90
2023-03-21T13:04:43.856Z,2.20
2023-03-21T13:08:03.604Z,2.30
2023-03-21T13:11:21.279Z,2.55
2023-03-21T13:14:36.841Z,1.90
2023-03-21T13:17:54.518Z,2.30
2023-03-21T13:21:24.457Z,2.10
2023-03-21T13:24:48.623Z,1.80
2023-03-21T13:28:02.875Z,2.45
2023-03-21T13:31:22.613Z,1.80
2023-03-21T13:34:38.643Z,1.70
2023-03-21T13:37:53.773Z,1.85
2023-03-21T13:41:18.090Z,2.10
2023-03-21T13:44:44.111Z,2.40
2023-03-21T13:47:58.648Z,3.05
2023-03-21T13:51:11.491Z,2.50
2023-03-21T13:54:30.727Z,2.30
2023-03-21T13:57:43.029Z,2.40
2023-03-21T14:01:16.165Z,2.80
2023-03-21T14:04:42.404Z,2.53
2023-03-21T14:08:12.647Z,2.15
2023-03-21T14:11:27.791Z,1.50
2023-03-21T14:14:42.217Z,1.40
2023-03-21T14:17:56.102Z,1.90
2023-03-21T14:21:24.297Z,1.33
2023-03-21T14:24:37.497Z,1.80
2023-03-21T14:27:52.705Z,2.00
2023-03-21T14:31:05.717Z,5.30
2023-03-21T14:34:18.338Z,2.55
2023-03-21T14:37:30.858Z,2.00
2023-03-21T14:40:50.072Z,1.80
2023-03-21T14:44:27.967Z,2.35
2023-03-21T14:47:40.406Z,1.80
2023-03-21T14:50:54.160Z,1.80
2023-03-21T14:54:06.578Z,2.22
2023-03-21T14:57:25.092Z,3.53
2023-03-21T15:00:37.691Z,1.75
2023-03-21T15:03:50.718Z,2.12
2023-03-21T15:07:05.209Z,2.12
2023-03-21T15:10:18.149Z,1.80
2023-03-21T15:13:49.682Z,2.20
2023-03-21T15:17:04.215Z,1.70
2023-03-21T15:20:16.944Z,1.77
2023-03-21T15:23:35.856Z,1.90
2023-03-21T15:26:48.735Z,1.60
2023-03-21T15:30:01.347Z,1.80
2023-03-21T15:33:14.740Z,1.70
2023-03-21T15:36:29.345Z,1.60
2023-03-21T15:39:41.774Z,1.75
2023-03-21T15:43:08.222Z,1.90
2023-03-21T15:46:48.284Z,1.70
2023-03-21T15:50:02.564Z,1.98
2023-03-21T15:53:17.215Z,1.77
2023-03-21T15:56:34.775Z,2.05
2023-03-21T15:59:47.950Z,3.10
2023-03-21T16:03:03.043Z,2.15
2023-03-21T16:06:20.759Z,2.22
2023-03-21T16:09:44.119Z,1.98
2023-03-21T16:12:56.847Z,2.00
2023-03-21T16:16:19.911Z,2.00
2023-03-21T16:19:32.530Z,2.30
2023-03-21T16:22:44.842Z,2.45
2023-03-21T16:25:58.976Z,2.97
2023-03-21T16:29:12.706Z,2.78
2023-03-21T16:32:25.345Z,3.10
2023-03-21T16:35:37.731Z,3.08
2023-03-21T16:38:52.646Z,2.70
2023-03-21T16:42:05.065Z,3.10
2023-03-21T16:45:17.867Z,3.28
2023-03-21T16:48:30.318Z,3.30
2023-03-21T16:51:43.021Z,3.58
2023-03-21T16:54:55.359Z,2.92
2023-03-21T16:58:08.037Z,3.00
2023-03-21T17:01:21.179Z,3.10
2023-03-21T17:04:33.812Z,3.10
2023-03-21T17:07:47.149Z,3.75
2023-03-21T17:10:59.993Z,3.60
2023-03-21T17:14:12.764Z,2.80
2023-03-21T17:17:25.412Z,3.42
2023-03-21T17:20:40.211Z,4.35
2023-03-21T17:23:53.223Z,3.30
2023-03-21T17:27:07.550Z,3.45
2023-03-21T17:30:33.982Z,3.58
2023-03-21T17:33:46.885Z,3.40
2023-03-21T17:36:59.536Z,3.45
2023-03-21T17:40:12.388Z,3.47
2023-03-21T17:43:25.060Z,3.22
2023-03-21T17:46:37.571Z,3.70
2023-03-21T17:49:50.232Z,5.43
2023-03-21T17:53:04.020Z,6.47
2023-03-21T17:56:27.241Z,5.00
2023-03-21T17:59:39.604Z,4.55
2023-03-21T18:02:52.352Z,4.65
2023-03-21T18:06:05.732Z,4.30
2023-03-21T18:09:21.555Z,4.60
2023-03-21T18:12:34.422Z,6.30
2023-03-21T18:15:48.339Z,5.03
2023-03-21T18:19:01.085Z,4.75
2023-03-21T18:22:13.673Z,5.20
2023-03-21T18:25:26.348Z,5.97
2023-03-21T18:28:39.748Z,6.28
2023-03-21T18:32:05.427Z,5.87
2023-03-21T18:35:19.797Z,4.97
2023-03-21T18:38:32.592Z,5.35
2023-03-21T18:41:46.276Z,5.37
2023-03-21T18:44:59.048Z,5.12
2023-03-21T18:48:13.624Z,7.70
2023-03-21T18:51:26.453Z,7.97
2023-03-21T18:54:39.109Z,6.30
2023-03-21T18:57:53.995Z,6.53
2023-03-21T19:01:06.820Z,10.07
2023-03-21T19:04:28.723Z,8.40
2023-03-21T19:07:42.223Z,13.27
2023-03-21T19:10:59.579Z,10.40
2023-03-21T19:14:14.422Z,10.68
2023-03-21T19:18:21.845Z,12.23
2023-03-21T19:21:01.327Z,15.60
2023-03-21T19:24:27.164Z,16.42
2023-03-21T19:27:41.280Z,14.10
2023-03-21T19:30:55.540Z,11.65
2023-03-21T19:34:08.054Z,12.80
2023-03-21T19:37:20.858Z,11.48
2023-03-21T19:40:33.318Z,11.82
2023-03-21T19:43:54.148Z,11.23
2023-03-21T19:47:07.700Z,8.73
2023-03-21T19:50:57.968Z,11.30
2023-03-21T19:53:52.690Z,9.98
2023-03-21T19:57:05.573Z,10.60
2023-03-21T20:00:18.799Z,12.80
2023-03-21T20:03:31.732Z,12.40
2023-03-21T20:06:44.176Z,13.02
2023-03-21T20:09:57.476Z,12.10
2023-03-21T20:13:09.952Z,12.07
2023-03-21T20:16:23.156Z,14.02
2023-03-21T20:19:35.579Z,12.05
2023-03-21T20:26:22.123Z,11.98
2023-03-21T20:33:07.060Z,16.62
2023-03-21T20:36:38.850Z,17.12
2023-03-21T20:39:52.708Z,17.58
2023-03-21T20:43:33.510Z,17.70
2023-03-21T20:46:38.035Z,14.43
2023-03-21T20:49:50.870Z,13.18
2023-03-21T20:53:07.259Z,16.17
2023-03-21T20:56:20.755Z,14.00
2023-03-21T20:59:33.627Z,13.02
2023-03-21T21:02:47.604Z,11.90
2023-03-21T21:06:00.033Z,13.10
2023-03-21T21:09:12.664Z,12.25
2023-03-21T21:12:28.643Z,12.00
2023-03-21T21:15:42.241Z,11.52
2023-03-21T21:18:54.635Z,11.15
2023-03-21T21:22:07.295Z,12.23
2023-03-21T21:25:19.639Z,12.40
2023-03-21T21:31:51.082Z,10.55
2023-03-21T21:35:04.083Z,9.90
2023-03-21T21:38:19.922Z,8.60
2023-03-21T21:41:32.533Z,6.87
2023-03-21T21:44:45.182Z,7.15
2023-03-21T21:47:58.058Z,7.07
2023-03-21T21:51:10.456Z,7.30
2023-03-21T21:54:23.184Z,7.93
2023-03-21T21:57:35.959Z,7.87
2023-03-21T22:00:50.127Z,8.05
2023-03-21T22:04:06.226Z,8.27
2023-03-21T22:07:19.592Z,8.07
2023-03-21T22:10:32.589Z,9.18
2023-03-21T22:13:45.453Z,8.80
2023-03-21T22:16:59.875Z,9.68
2023-03-21T22:20:14.495Z,8.98
2023-03-21T22:23:28.023Z,9.38
2023-03-21T22:26:40.446Z,9.68
2023-03-21T22:29:53.194Z,9.85
2023-03-21T22:33:09.745Z,10.35
2023-03-21T22:36:22.803Z,10.20
2023-03-21T22:39:35.141Z,10.25
2023-03-21T22:42:47.731Z,10.10
2023-03-21T22:46:01.966Z,11.12
2023-03-21T22:49:14.873Z,11.52
2023-03-21T22:52:27.350Z,10.98
2023-03-21T22:55:40.069Z,10.80
2023-03-21T22:58:52.568Z,11.35
2023-03-21T23:02:05.191Z,11.38
2023-03-21T23:05:17.610Z,11.20
2023-03-21T23:08:30.561Z,11.55
2023-03-21T23:11:45.217Z,11.63
2023-03-21T23:14:57.872Z,11.43
2023-03-21T23:18:10.177Z,11.50
2023-03-21T23:21:23.817Z,11.93
2023-03-21T23:24:36.163Z,11.05
2023-03-21T23:27:48.783Z,11.55
2023-03-21T23:31:07.027Z,12.23
2023-03-21T23:34:19.694Z,11.63
2023-03-21T23:37:32.211Z,11.55
2023-03-21T23:40:44.845Z,18.23
2023-03-21T23:43:57.222Z,14.65
2023-03-21T23:47:09.874Z,13.32
2023-03-21T23:50:22.202Z,12.00
2023-03-21T23:53:34.810Z,12.98
2023-03-21T23:56:47.129Z,13.20
2023-03-21T23:59:59.854Z,13.13
